Time;durP1;ratioP1;P1;durP2;ratioP2;P2;SDS_P1;SDS_P2;PMS_P1;PMS_P2;Temp;Humidity;BMP_temperature;BMP_pressure;BME280_temperature;BME280_humidity;BME280_pressure;Samples;Min_cycle;Max_cycle;Signal;HPM_P1;HPM_P2
2022/07/24 00:00:39;;;;;;;4.65;4.13;;;21.30;60.30;;;;;;5042578;28;20027;-65
2022/07/24 00:03:05;;;;;;;4.68;3.72;;;21.20;60.70;;;;;;5032627;28;20027;-65
2022/07/24 00:05:31;;;;;;;4.55;3.47;;;21.20;60.90;;;;;;5036057;28;20116;-66
2022/07/24 00:07:57;;;;;;;3.33;3.03;;;21.20;61.00;;;;;;5029875;28;20018;-66
2022/07/24 00:10:22;;;;;;;4.60;3.10;;;21.20;60.90;;;;;;5031245;28;20399;-65
2022/07/24 00:12:48;;;;;;;4.72;3.58;;;21.20;60.80;;;;;;5030062;28;20052;-65
2022/07/24 00:15:14;;;;;;;3.60;3.10;;;21.20;60.90;;;;;;5030154;28;20396;-66
2022/07/24 00:17:40;;;;;;;3.20;2.90;;;21.10;61.00;;;;;;5030433;28;20021;-66
2022/07/24 00:20:06;;;;;;;4.53;3.80;;;21.10;61.00;;;;;;5032549;28;20120;-65
2022/07/24 00:22:32;;;;;;;5.43;4.10;;;21.10;61.30;;;;;;5042362;28;20041;-66
2022/07/24 00:24:57;;;;;;;4.22;3.42;;;21.00;61.60;;;;;;5049202;28;20151;-66
2022/07/24 00:27:23;;;;;;;4.45;3.80;;;21.00;61.80;;;;;;5047699;28;20033;-66
2022/07/24 00:29:49;;;;;;;4.70;3.75;;;20.90;62.20;;;;;;5034319;28;20029;-65
2022/07/24 00:32:15;;;;;;;4.70;3.70;;;20.80;62.40;;;;;;5040054;28;20052;-65
2022/07/24 00:34:40;;;;;;;5.85;3.70;;;20.80;62.40;;;;;;5049530;28;20040;-65
2022/07/24 00:37:06;;;;;;;4.80;3.60;;;20.80;62.50;;;;;;5048644;28;20069;-65
2022/07/24 00:39:31;;;;;;;6.78;4.85;;;20.80;62.50;;;;;;5050107;28;20478;-66
2022/07/24 00:41:57;;;;;;;4.22;3.83;;;20.70;62.90;;;;;;5047710;28;20510;-66
2022/07/24 00:44:22;;;;;;;4.82;3.85;;;20.70;62.90;;;;;;5036967;28;20088;-66
2022/07/24 00:46:48;;;;;;;4.55;3.90;;;20.70;63.10;;;;;;5044484;28;20480;-66
2022/07/24 00:49:16;;;;;;;7.28;5.97;;;20.70;63.20;;;;;;5058352;28;20523;-65
2022/07/24 00:51:44;;;;;;;7.55;5.35;;;20.70;63.40;;;;;;5046410;28;20064;-65
2022/07/24 00:54:11;;;;;;;5.85;4.35;;;20.60;63.40;;;;;;5037096;28;20017;-65
2022/07/24 00:56:37;;;;;;;4.60;4.13;;;20.60;63.40;;;;;;5041983;28;20025;-65
2022/07/24 00:59:03;;;;;;;3.95;3.15;;;20.60;63.50;;;;;;5056038;28;20032;-65
2022/07/24 01:01:30;;;;;;;4.63;4.00;;;20.60;63.60;;;;;;5044797;28;20033;-65
2022/07/24 01:03:56;;;;;;;7.38;4.75;;;20.60;63.80;;;;;;5042887;28;20562;-65
2022/07/24 01:06:22;;;;;;;5.05;3.95;;;20.50;64.20;;;;;;5036708;28;20033;-65
2022/07/24 01:08:48;;;;;;;5.43;3.88;;;20.50;64.20;;;;;;5054165;28;20049;-65
2022/07/24 01:11:14;;;;;;;5.88;4.30;;;20.50;64.10;;;;;;5046502;28;20052;-65
2022/07/24 01:13:40;;;;;;;5.10;4.60;;;20.50;64.20;;;;;;5060387;28;20024;-66
2022/07/24 01:16:09;;;;;;;5.57;4.30;;;20.50;64.40;;;;;;5061573;28;20032;-65
2022/07/24 01:18:36;;;;;;;3.88;3.47;;;20.40;64.40;;;;;;5033363;28;20029;-65
2022/07/24 01:21:02;;;;;;;4.13;3.63;;;20.50;64.40;;;;;;5047831;28;20021;-66
2022/07/24 01:23:28;;;;;;;4.70;4.05;;;20.40;64.40;;;;;;5051534;28;20079;-66
2022/07/24 01:25:53;;;;;;;4.32;3.85;;;20.40;64.80;;;;;;5051280;28;20028;-66
2022/07/24 01:28:19;;;;;;;6.13;4.05;;;20.40;64.70;;;;;;5052025;28;20056;-66
2022/07/24 01:30:46;;;;;;;4.80;4.30;;;20.30;65.00;;;;;;5040173;28;20032;-67
2022/07/24 01:33:12;;;;;;;6.22;4.80;;;20.20;65.30;;;;;;5048086;28;20025;-66
2022/07/24 01:35:38;;;;;;;5.05;4.55;;;20.20;65.60;;;;;;5052190;28;20040;-66
2022/07/24 01:38:03;;;;;;;5.18;4.35;;;20.20;65.80;;;;;;5051705;28;20037;-66
2022/07/24 01:40:29;;;;;;;5.70;4.53;;;20.10;65.80;;;;;;5039651;28;20055;-66
2022/07/24 01:42:54;;;;;;;5.18;4.57;;;20.10;66.00;;;;;;5043548;28;20062;-67
2022/07/24 01:45:21;;;;;;;5.68;4.40;;;20.10;66.10;;;;;;5051596;28;20045;-67
2022/07/24 01:47:47;;;;;;;6.43;4.57;;;20.10;66.10;;;;;;5051491;28;20391;-67
2022/07/24 01:50:13;;;;;;;6.13;4.25;;;20.10;66.10;;;;;;5041147;28;20113;-67
2022/07/24 01:52:39;;;;;;;4.63;4.00;;;20.10;66.10;;;;;;5032359;28;20025;-67
2022/07/24 01:55:05;;;;;;;4.47;3.90;;;20.10;65.90;;;;;;5042301;28;20100;-67
2022/07/24 01:57:31;;;;;;;5.80;3.97;;;20.10;65.90;;;;;;5050989;28;20033;-66
2022/07/24 01:59:58;;;;;;;6.00;4.05;;;20.10;65.70;;;;;;5043065;28;20017;-66
2022/07/24 02:02:24;;;;;;;5.22;3.83;;;20.10;65.70;;;;;;5032481;28;20041;-65
2022/07/24 02:04:49;;;;;;;3.90;3.35;;;20.10;65.60;;;;;;5036326;28;20127;-65
2022/07/24 02:07:15;;;;;;;4.70;4.20;;;20.20;65.50;;;;;;5050968;28;20078;-64
2022/07/24 02:09:40;;;;;;;5.50;4.80;;;20.10;65.70;;;;;;5045851;28;20053;-65
2022/07/24 02:12:06;;;;;;;7.00;5.35;;;20.10;65.80;;;;;;5031942;28;20032;-65
2022/07/24 02:14:32;;;;;;;4.90;4.40;;;20.10;65.80;;;;;;5034110;28;20021;-65
2022/07/24 02:16:57;;;;;;;4.75;4.13;;;20.10;65.70;;;;;;5050805;28;20032;-64
2022/07/24 02:19:24;;;;;;;5.97;4.32;;;20.10;65.60;;;;;;5044451;28;20021;-65
2022/07/24 02:21:49;;;;;;;3.88;3.15;;;20.10;65.70;;;;;;5050092;28;20017;-64
2022/07/24 02:24:15;;;;;;;6.03;4.53;;;20.10;65.50;;;;;;5050466;28;20120;-65
2022/07/24 02:26:41;;;;;;;5.30;3.67;;;20.10;65.70;;;;;;5042500;28;20490;-65
2022/07/24 02:29:06;;;;;;;5.72;4.00;;;20.10;65.50;;;;;;5031773;28;20036;-66
2022/07/24 02:31:32;;;;;;;5.50;3.92;;;20.10;65.40;;;;;;5034004;28;20504;-65
2022/07/24 02:33:58;;;;;;;6.00;4.30;;;20.10;65.60;;;;;;5038989;28;20013;-65
2022/07/24 02:36:23;;;;;;;6.10;4.95;;;20.00;65.60;;;;;;5050996;28;20132;-65
2022/07/24 02:38:49;;;;;;;4.88;3.88;;;20.00;65.80;;;;;;5050345;28;20122;-65
2022/07/24 02:41:14;;;;;;;4.80;3.67;;;20.00;65.60;;;;;;5032666;28;20126;-65
2022/07/24 02:43:40;;;;;;;5.88;3.53;;;20.10;65.50;;;;;;5031100;28;20370;-64
2022/07/24 02:46:06;;;;;;;5.40;3.95;;;20.10;65.20;;;;;;5032054;28;20546;-64
2022/07/24 02:48:31;;;;;;;5.18;3.83;;;20.10;65.10;;;;;;5031426;28;20389;-65
2022/07/24 02:50:57;;;;;;;5.40;3.38;;;20.20;65.10;;;;;;5045275;28;20009;-65
2022/07/24 02:53:23;;;;;;;5.35;3.50;;;20.20;64.90;;;;;;5043577;28;20100;-64
2022/07/24 02:55:48;;;;;;;4.32;3.83;;;20.20;64.70;;;;;;5031322;28;20038;-64
2022/07/24 02:58:14;;;;;;;4.05;3.65;;;20.20;64.60;;;;;;5031410;28;20096;-64
2022/07/24 03:00:39;;;;;;;4.75;4.22;;;20.20;64.60;;;;;;5033652;28;20025;-65
2022/07/24 03:03:05;;;;;;;4.43;3.83;;;20.20;64.50;;;;;;5033696;28;20052;-65
2022/07/24 03:05:30;;;;;;;5.93;3.90;;;20.20;64.40;;;;;;5046708;28;20637;-65
2022/07/24 03:07:56;;;;;;;6.82;5.18;;;20.20;64.40;;;;;;5030456;28;20433;-65
2022/07/24 03:10:22;;;;;;;4.93;3.90;;;20.10;64.70;;;;;;5039039;28;20059;-65
2022/07/24 03:12:47;;;;;;;5.65;4.72;;;20.10;64.80;;;;;;5049860;28;20061;-65
2022/07/24 03:15:14;;;;;;;5.18;4.18;;;20.10;65.10;;;;;;5049140;28;20025;-65
2022/07/24 03:17:54;;;;;;;4.43;3.95;;;20.10;65.00;;;;;;5047212;28;20036;-65
2022/07/24 03:20:21;;;;;;;4.03;3.50;;;20.10;64.90;;;;;;5057574;28;20021;-64
2022/07/24 03:22:47;;;;;;;5.43;3.72;;;20.10;64.80;;;;;;5042939;28;20507;-65
2022/07/24 03:25:12;;;;;;;6.43;4.80;;;20.10;64.70;;;;;;5047134;28;20163;-65
2022/07/24 03:27:38;;;;;;;6.40;3.88;;;20.10;64.90;;;;;;5050848;28;20056;-64
2022/07/24 03:30:05;;;;;;;4.85;4.35;;;20.00;64.80;;;;;;5059262;28;20020;-64
2022/07/24 03:32:31;;;;;;;6.18;5.07;;;20.00;64.80;;;;;;5061104;28;20024;-64
2022/07/24 03:34:56;;;;;;;7.13;5.22;;;20.00;64.90;;;;;;5052845;28;20116;-65
2022/07/24 03:37:22;;;;;;;5.80;4.55;;;19.90;65.00;;;;;;5036307;28;20064;-65
2022/07/24 03:39:47;;;;;;;5.70;4.20;;;19.90;65.20;;;;;;5055107;28;20078;-66
2022/07/24 03:42:13;;;;;;;5.38;4.45;;;19.90;65.30;;;;;;5061574;28;20036;-66
2022/07/24 03:44:38;;;;;;;7.05;6.03;;;19.90;65.50;;;;;;5048741;28;20029;-66
2022/07/24 03:47:04;;;;;;;7.70;5.45;;;19.80;65.80;;;;;;5048025;28;20025;-66
2022/07/24 03:49:30;;;;;;;8.00;6.10;;;19.70;66.00;;;;;;5043505;28;20099;-65
2022/07/24 03:51:56;;;;;;;6.68;5.75;;;19.70;66.40;;;;;;5030139;28;20045;-66
2022/07/24 03:54:22;;;;;;;5.00;4.50;;;19.60;66.40;;;;;;5037824;28;20025;-65
2022/07/24 03:56:48;;;;;;;6.30;5.10;;;19.60;66.30;;;;;;5049770;28;20117;-66
2022/07/24 03:59:13;;;;;;;6.15;4.93;;;19.60;66.50;;;;;;5044712;28;20075;-66
2022/07/24 04:01:39;;;;;;;5.47;4.45;;;19.60;66.70;;;;;;5030366;28;20037;-66
2022/07/24 04:04:04;;;;;;;6.45;4.25;;;19.60;66.50;;;;;;5030145;28;20037;-66
2022/07/24 04:06:32;;;;;;;6.25;4.78;;;19.60;66.40;;;;;;5036977;28;20086;-66
2022/07/24 04:08:58;;;;;;;5.82;4.55;;;19.60;66.50;;;;;;5037922;28;20125;-66
2022/07/24 04:11:23;;;;;;;8.32;6.07;;;19.60;66.50;;;;;;5032767;28;20032;-65
2022/07/24 04:13:49;;;;;;;9.45;7.35;;;19.50;66.80;;;;;;5029863;28;21923;-65
2022/07/24 04:16:14;;;;;;;7.70;6.07;;;19.50;67.30;;;;;;5047183;28;20033;-65
2022/07/24 04:18:40;;;;;;;8.75;7.43;;;19.50;67.30;;;;;;5041113;28;20063;-65
2022/07/24 04:21:06;;;;;;;6.95;5.90;;;19.50;67.40;;;;;;5049887;28;20028;-65
2022/07/24 04:23:31;;;;;;;7.78;6.13;;;19.50;67.20;;;;;;5053532;28;20065;-65
2022/07/24 04:25:57;;;;;;;8.77;7.60;;;19.50;67.20;;;;;;5051203;28;20033;-66
2022/07/24 04:28:23;;;;;;;8.13;6.78;;;19.50;67.40;;;;;;5035660;28;20127;-66
2022/07/24 04:30:48;;;;;;;7.70;6.90;;;19.50;67.60;;;;;;5035839;28;20508;-66
2022/07/24 04:33:14;;;;;;;8.27;6.70;;;19.50;67.70;;;;;;5032348;28;20480;-67
2022/07/24 04:35:39;;;;;;;7.18;5.90;;;19.50;67.70;;;;;;5045377;28;20033;-66
2022/07/24 04:38:05;;;;;;;9.18;7.63;;;19.50;67.50;;;;;;5053448;28;20020;-65
2022/07/24 04:40:30;;;;;;;7.38;6.20;;;19.60;67.60;;;;;;5051396;28;20047;-65
2022/07/24 04:42:56;;;;;;;7.63;5.93;;;19.60;67.70;;;;;;5052845;28;20094;-66
2022/07/24 04:45:21;;;;;;;7.93;6.38;;;19.60;67.50;;;;;;5052117;28;20174;-65
2022/07/24 04:47:47;;;;;;;11.57;7.57;;;19.60;67.30;;;;;;5053402;28;20484;-65
2022/07/24 04:50:13;;;;;;;11.27;8.02;;;19.60;67.50;;;;;;5038746;28;20030;-66
2022/07/24 04:52:38;;;;;;;7.72;6.90;;;19.60;67.70;;;;;;5033216;28;20032;-66
2022/07/24 04:55:04;;;;;;;7.25;6.45;;;19.60;67.80;;;;;;5052188;28;20025;-67
2022/07/24 04:57:30;;;;;;;7.68;6.47;;;19.60;67.90;;;;;;5050035;28;20025;-65
2022/07/24 04:59:55;;;;;;;9.20;7.03;;;19.70;67.90;;;;;;5036303;28;20509;-67
2022/07/24 05:02:21;;;;;;;9.48;7.80;;;19.70;67.80;;;;;;5039443;28;20033;-65
2022/07/24 05:04:46;;;;;;;9.60;7.80;;;19.70;68.00;;;;;;5050194;28;20071;-66
2022/07/24 05:07:12;;;;;;;10.10;8.35;;;19.70;68.30;;;;;;5033413;28;20037;-65
2022/07/24 05:09:37;;;;;;;9.98;7.68;;;19.70;68.30;;;;;;5036206;28;20013;-66
2022/07/24 05:12:03;;;;;;;8.32;6.70;;;19.70;68.30;;;;;;5033431;28;20368;-66
2022/07/24 05:14:29;;;;;;;6.47;5.60;;;20.00;68.10;;;;;;5038255;28;20029;-67
2022/07/24 05:16:54;;;;;;;7.88;6.50;;;20.80;66.80;;;;;;5033585;28;20096;-64
2022/07/24 05:19:20;;;;;;;9.40;8.05;;;21.50;64.70;;;;;;5038947;28;20380;-65
2022/07/24 05:21:45;;;;;;;10.73;8.18;;;21.90;63.10;;;;;;5042241;28;20034;-64
2022/07/24 05:24:11;;;;;;;9.43;7.93;;;22.20;62.10;;;;;;5033348;28;20030;-65
2022/07/24 05:26:36;;;;;;;9.45;7.63;;;22.60;61.20;;;;;;5047495;28;20112;-66
2022/07/24 05:29:05;;;;;;;8.82;7.57;;;23.20;60.60;;;;;;5058916;28;20037;-66
2022/07/24 05:31:32;;;;;;;8.30;7.18;;;23.70;58.60;;;;;;5045270;28;20026;-65
2022/07/24 05:33:58;;;;;;;8.63;7.72;;;24.20;57.40;;;;;;5041792;28;20103;-67
2022/07/24 05:36:24;;;;;;;10.02;8.43;;;24.60;56.20;;;;;;5037741;28;20100;-66
2022/07/24 05:38:50;;;;;;;10.18;8.25;;;25.00;55.30;;;;;;5049449;28;20026;-65
2022/07/24 05:41:16;;;;;;;10.07;8.27;;;25.30;54.40;;;;;;5043045;28;20095;-65
2022/07/24 05:43:41;;;;;;;9.43;8.20;;;25.80;53.70;;;;;;5062107;28;20025;-65
2022/07/24 05:46:07;;;;;;;9.85;8.82;;;26.20;53.00;;;;;;5042578;28;20042;-66
2022/07/24 05:48:33;;;;;;;9.60;8.30;;;26.50;52.20;;;;;;5049055;28;20028;-67
2022/07/24 05:50:59;;;;;;;8.20;7.40;;;26.80;51.70;;;;;;5045620;28;20041;-66
2022/07/24 05:53:24;;;;;;;10.38;9.20;;;27.10;51.20;;;;;;5043346;28;20072;-66
2022/07/24 05:55:50;;;;;;;10.25;9.18;;;27.20;50.60;;;;;;5049201;28;20071;-66
2022/07/24 05:58:16;;;;;;;12.02;9.85;;;27.30;50.30;;;;;;5062932;28;20039;-66
2022/07/24 06:00:42;;;;;;;9.02;7.30;;;27.20;50.20;;;;;;5060844;28;20155;-66
2022/07/24 06:03:07;;;;;;;11.30;8.63;;;27.50;50.20;;;;;;5049287;28;20040;-67
2022/07/24 06:05:33;;;;;;;12.00;10.55;;;27.60;49.80;;;;;;5037758;28;20033;-65
2022/07/24 06:07:58;;;;;;;10.65;9.35;;;27.70;49.30;;;;;;5058541;28;20017;-65
2022/07/24 06:10:24;;;;;;;10.73;9.27;;;27.80;49.40;;;;;;5043223;28;20507;-67
2022/07/24 06:12:50;;;;;;;12.40;10.00;;;27.70;49.60;;;;;;5062300;28;20021;-67
2022/07/24 06:15:18;;;;;;;8.93;7.38;;;27.80;49.50;;;;;;5049723;28;20021;-67
2022/07/24 06:17:44;;;;;;;11.55;10.35;;;28.00;49.50;;;;;;5063520;28;20056;-65
2022/07/24 06:20:12;;;;;;;13.20;9.10;;;28.10;48.90;;;;;;5043913;28;20034;-65
2022/07/24 06:22:39;;;;;;;10.23;7.85;;;27.90;49.00;;;;;;5041048;28;20061;-65
2022/07/24 06:25:05;;;;;;;10.07;8.05;;;28.20;48.80;;;;;;5058937;28;20083;-66
2022/07/24 06:27:31;;;;;;;9.68;6.78;;;28.40;48.50;;;;;;5058086;28;20031;-66
2022/07/24 06:29:56;;;;;;;7.78;6.95;;;28.60;48.20;;;;;;5058577;28;20605;-66
2022/07/24 06:32:22;;;;;;;10.07;7.22;;;28.60;47.90;;;;;;5059278;28;20025;-66
2022/07/24 06:34:47;;;;;;;8.60;6.90;;;28.50;48.30;;;;;;5053432;28;20071;-66
2022/07/24 06:37:13;;;;;;;7.45;6.35;;;28.50;48.60;;;;;;5054283;28;20037;-66
2022/07/24 06:39:38;;;;;;;7.18;6.40;;;28.40;48.70;;;;;;5049985;28;20025;-66
2022/07/24 06:42:04;;;;;;;7.95;6.55;;;28.10;49.40;;;;;;5043563;28;20036;-66
2022/07/24 06:44:30;;;;;;;9.85;8.43;;;27.80;50.00;;;;;;5045462;28;20021;-66
2022/07/24 06:46:56;;;;;;;10.27;6.68;;;27.00;50.50;;;;;;5048442;28;20025;-66
2022/07/24 06:49:22;;;;;;;6.10;5.10;;;26.40;51.40;;;;;;5047531;28;20048;-66
2022/07/24 06:51:48;;;;;;;8.13;7.18;;;26.20;52.20;;;;;;5067048;28;20028;-65
2022/07/24 06:54:13;;;;;;;8.90;5.97;;;26.10;52.40;;;;;;5056476;28;20021;-66
2022/07/24 06:56:39;;;;;;;8.55;6.35;;;25.90;52.90;;;;;;5048399;28;20035;-66
2022/07/24 06:59:04;;;;;;;6.43;5.25;;;25.80;53.10;;;;;;5038848;28;20566;-66
2022/07/24 07:01:30;;;;;;;7.05;5.78;;;25.80;53.40;;;;;;5039145;28;20029;-66
2022/07/24 07:03:56;;;;;;;8.05;6.45;;;25.70;53.20;;;;;;5056147;28;20399;-66
2022/07/24 07:06:21;;;;;;;6.93;5.25;;;25.70;53.20;;;;;;5046707;28;20063;-66
2022/07/24 07:08:47;;;;;;;5.20;4.00;;;25.70;53.10;;;;;;5046404;28;20033;-66
2022/07/24 07:11:13;;;;;;;4.88;3.85;;;25.70;53.00;;;;;;5045474;28;20022;-66
2022/07/24 07:13:39;;;;;;;5.90;4.80;;;25.80;52.80;;;;;;5054481;28;20021;-66
2022/07/24 07:16:04;;;;;;;6.10;5.10;;;25.90;52.30;;;;;;5067126;28;20066;-66
2022/07/24 07:18:30;;;;;;;4.72;3.90;;;25.90;52.00;;;;;;5040373;28;20554;-67
2022/07/24 07:20:56;;;;;;;5.10;3.72;;;26.00;52.20;;;;;;5048569;28;20025;-67
2022/07/24 07:23:23;;;;;;;4.68;3.55;;;26.10;51.90;;;;;;5042834;28;20040;-67
2022/07/24 07:25:48;;;;;;;7.07;5.07;;;26.10;51.70;;;;;;5049171;28;20107;-66
2022/07/24 07:42:42;;;;;;;4.38;3.33;;;25.70;50.00;;;;;;5040985;28;20401;-66
2022/07/24 07:45:08;;;;;;;4.10;3.35;;;25.70;50.80;;;;;;5029288;28;20084;-65
2022/07/24 07:47:36;;;;;;;4.90;3.65;;;25.60;50.70;;;;;;5028336;28;20904;-65
2022/07/24 07:50:02;;;;;;;3.90;3.30;;;25.60;50.20;;;;;;5025683;28;20009;-65
2022/07/24 07:52:28;;;;;;;5.85;3.28;;;25.70;50.60;;;;;;5029694;28;20028;-66
2022/07/24 07:54:53;;;;;;;3.85;2.60;;;25.80;49.80;;;;;;5020818;28;20064;-66
2022/07/24 07:57:19;;;;;;;4.63;3.55;;;26.00;49.80;;;;;;5027478;28;20160;-66
2022/07/24 07:59:44;;;;;;;5.43;2.67;;;26.10;49.10;;;;;;5028559;28;20310;-65
2022/07/24 08:02:10;;;;;;;3.85;3.00;;;26.10;49.00;;;;;;5026802;28;20052;-65
2022/07/24 08:04:36;;;;;;;3.33;2.70;;;26.20;48.70;;;;;;5026694;28;20029;-66
2022/07/24 08:07:01;;;;;;;3.33;2.50;;;26.40;48.70;;;;;;5027530;28;20033;-66
2022/07/24 08:09:27;;;;;;;3.55;3.20;;;26.60;48.40;;;;;;5026381;28;20041;-66
2022/07/24 08:11:52;;;;;;;3.17;2.67;;;26.70;48.20;;;;;;5019545;28;20484;-67
2022/07/24 08:14:18;;;;;;;2.55;2.15;;;26.70;47.60;;;;;;5023547;28;20037;-64
2022/07/24 08:16:43;;;;;;;3.42;2.40;;;26.80;47.80;;;;;;5023300;28;20029;-66
2022/07/24 08:19:09;;;;;;;2.33;2.13;;;26.90;47.40;;;;;;5025994;28;20021;-65
2022/07/24 08:21:34;;;;;;;2.95;2.65;;;27.00;47.50;;;;;;5024455;28;20405;-66
2022/07/24 08:24:00;;;;;;;4.18;2.45;;;27.00;46.60;;;;;;5014565;28;20034;-66
2022/07/24 08:26:30;;;;;;;4.43;2.55;;;27.00;46.50;;;;;;5015057;28;20022;-65
2022/07/24 08:28:57;;;;;;;3.30;3.00;;;26.90;46.20;;;;;;5026952;28;20022;-66
2022/07/24 08:31:22;;;;;;;3.38;2.15;;;27.00;46.20;;;;;;5021987;28;20041;-65
2022/07/24 08:33:48;;;;;;;4.10;2.33;;;27.00;46.50;;;;;;5025398;28;20424;-65
2022/07/24 08:36:13;;;;;;;4.07;3.42;;;27.10;46.60;;;;;;5026196;28;20033;-66
2022/07/24 08:38:40;;;;;;;4.53;2.80;;;27.10;45.90;;;;;;5036991;28;20026;-65
2022/07/24 08:41:06;;;;;;;3.45;2.90;;;27.00;46.20;;;;;;5032021;28;20055;-65
2022/07/24 08:43:31;;;;;;;2.90;2.28;;;27.00;46.10;;;;;;5013605;28;20547;-65
2022/07/24 08:45:59;;;;;;;2.65;2.45;;;27.20;46.20;;;;;;5026874;28;20029;-65
2022/07/24 08:48:27;;;;;;;4.47;3.05;;;27.30;46.10;;;;;;5021603;28;20105;-66
2022/07/24 08:50:53;;;;;;;3.95;2.60;;;27.30;45.60;;;;;;5034910;28;20038;-65
2022/07/24 08:53:23;;;;;;;2.72;2.20;;;27.30;45.90;;;;;;5013895;28;20029;-65
2022/07/24 08:55:49;;;;;;;3.72;2.42;;;27.50;46.10;;;;;;5011549;28;20025;-65
2022/07/24 08:58:15;;;;;;;4.18;2.70;;;27.60;45.80;;;;;;5022646;28;20124;-65
2022/07/24 09:00:41;;;;;;;3.13;2.70;;;27.80;46.50;;;;;;5013536;28;20030;-66
2022/07/24 09:03:08;;;;;;;3.00;2.40;;;27.80;45.50;;;;;;5021742;28;20028;-66
2022/07/24 09:05:51;;;;;;;2.80;2.35;;;27.90;45.80;;;;;;5008574;28;20057;-66
2022/07/24 09:08:16;;;;;;;4.40;3.35;;;28.00;45.80;;;;;;5015800;28;20014;-65
2022/07/24 09:10:58;;;;;;;4.57;2.83;;;27.80;44.50;;;;;;5009101;28;20045;-66
2022/07/24 09:13:26;;;;;;;3.42;2.85;;;27.60;44.90;;;;;;5012010;28;20025;-66
2022/07/24 09:15:52;;;;;;;3.33;2.90;;;27.50;45.10;;;;;;5007444;28;20026;-66
2022/07/24 09:18:36;;;;;;;2.63;2.22;;;27.60;44.90;;;;;;5003376;28;20080;-66
2022/07/24 09:21:15;;;;;;;2.95;2.40;;;27.60;44.70;;;;;;5003101;28;20034;-67
2022/07/24 09:23:41;;;;;;;2.90;2.50;;;27.60;44.10;;;;;;4999539;28;20617;-66
2022/07/24 09:26:07;;;;;;;2.08;1.88;;;27.50;44.40;;;;;;5008421;28;20022;-66
2022/07/24 09:28:53;;;;;;;2.20;2.05;;;27.60;44.70;;;;;;5001524;28;20076;-66
2022/07/24 09:31:21;;;;;;;2.30;1.90;;;27.60;44.40;;;;;;5011576;28;20022;-66
2022/07/24 09:33:46;;;;;;;2.65;1.70;;;27.60;44.20;;;;;;5009833;28;20043;-66
2022/07/24 09:36:18;;;;;;;2.35;2.08;;;27.80;44.40;;;;;;5001650;28;20027;-66
2022/07/24 09:38:50;;;;;;;2.03;1.85;;;27.90;44.40;;;;;;5005273;28;20489;-67
2022/07/24 09:41:23;;;;;;;2.00;1.80;;;28.10;44.10;;;;;;5009573;28;20083;-66
2022/07/24 09:44:00;;;;;;;3.10;2.22;;;28.20;44.00;;;;;;5011600;28;20021;-66
2022/07/24 09:46:26;;;;;;;3.15;2.28;;;28.20;43.70;;;;;;5005690;28;20508;-66
2022/07/24 09:48:56;;;;;;;2.22;2.00;;;28.20;43.90;;;;;;4998321;28;20595;-66
2022/07/24 09:51:21;;;;;;;2.10;1.90;;;28.30;44.10;;;;;;4992436;28;20052;-66
2022/07/24 09:53:57;;;;;;;2.10;1.90;;;28.30;43.80;;;;;;4996378;28;20384;-67
2022/07/24 09:56:26;;;;;;;2.00;1.80;;;28.40;43.70;;;;;;5004956;28;20021;-66
2022/07/24 09:58:55;;;;;;;2.40;1.77;;;28.50;43.80;;;;;;4996173;28;20030;-66
2022/07/24 10:01:24;;;;;;;2.00;1.88;;;28.60;43.80;;;;;;5007628;28;20394;-66
2022/07/24 10:03:52;;;;;;;2.22;1.85;;;28.70;43.80;;;;;;4992713;28;20033;-67
2022/07/24 10:06:20;;;;;;;2.67;2.10;;;28.90;43.70;;;;;;5009903;28;20034;-66
2022/07/24 10:08:48;;;;;;;1.90;1.67;;;28.90;43.30;;;;;;5009565;28;20026;-66
2022/07/24 10:11:13;;;;;;;1.98;1.70;;;29.00;43.30;;;;;;5010301;28;20044;-66
2022/07/24 10:13:39;;;;;;;2.00;1.80;;;29.20;43.40;;;;;;5003345;28;20030;-66
2022/07/24 10:16:11;;;;;;;3.70;2.20;;;29.20;43.20;;;;;;5004646;28;20037;-65
2022/07/24 10:18:48;;;;;;;;;;;29.20;42.80;;;;;;5018772;28;20033;-66
2022/07/24 10:21:16;;;;;;;2.30;2.10;;;29.10;42.80;;;;;;4991904;28;19924;-66
2022/07/24 10:23:51;;;;;;;2.22;1.90;;;29.10;42.60;;;;;;4999601;28;20489;-66
2022/07/24 10:26:34;;;;;;;2.03;1.83;;;29.10;43.00;;;;;;5009550;28;20022;-66
2022/07/24 10:29:10;;;;;;;2.85;1.83;;;29.10;43.00;;;;;;5008995;28;20033;-66
2022/07/24 10:31:39;;;;;;;1.83;1.73;;;29.10;42.80;;;;;;5011120;28;20030;-66
2022/07/24 10:34:15;;;;;;;1.83;1.70;;;29.20;42.80;;;;;;5010723;28;20049;-66
2022/07/24 10:36:51;;;;;;;2.20;1.90;;;29.20;42.60;;;;;;5003241;28;20030;-66
2022/07/24 10:39:50;;;;;;;2.67;2.08;;;29.40;42.70;;;;;;5010166;28;20032;-66
2022/07/24 10:42:15;;;;;;;2.10;1.90;;;29.30;41.90;;;;;;5010397;28;20048;-66
2022/07/24 10:44:44;;;;;;;3.03;2.70;;;29.30;41.90;;;;;;5009074;28;20400;-66
2022/07/24 10:47:13;;;;;;;2.00;1.90;;;29.30;41.70;;;;;;5007847;28;20026;-66
2022/07/24 10:49:43;;;;;;;2.63;2.00;;;29.30;41.90;;;;;;5007032;28;20018;-66
2022/07/24 10:52:30;;;;;;;2.15;1.80;;;29.40;41.60;;;;;;5016689;28;20025;-66
2022/07/24 10:55:20;;;;;;;1.77;1.60;;;29.60;41.30;;;;;;5006764;28;20109;-66
2022/07/24 10:58:01;;;;;;;2.17;1.80;;;29.70;41.60;;;;;;5004264;28;20088;-66
2022/07/24 11:00:38;;;;;;;2.10;1.90;;;29.70;41.50;;;;;;5017944;28;20104;-66
2022/07/24 11:03:06;;;;;;;2.58;1.88;;;29.70;41.40;;;;;;5010129;28;20026;-66
2022/07/24 11:05:38;;;;;;;3.70;2.20;;;29.60;41.50;;;;;;5013780;28;20049;-66
2022/07/24 11:08:12;;;;;;;2.65;1.88;;;29.70;41.30;;;;;;5010895;28;20029;-66
2022/07/24 11:10:50;;;;;;;2.10;1.90;;;29.70;41.40;;;;;;5015635;28;20113;-66
2022/07/24 11:13:34;;;;;;;3.28;2.20;;;29.90;41.50;;;;;;5009718;28;20500;-65
2022/07/24 11:16:15;;;;;;;2.10;1.90;;;29.80;40.90;;;;;;5011700;28;20053;-65
2022/07/24 11:18:49;;;;;;;2.25;2.03;;;29.80;41.20;;;;;;5007304;28;20497;-65
2022/07/24 11:21:41;;;;;;;1.80;1.70;;;30.00;41.10;;;;;;5010384;28;20489;-66
2022/07/24 11:24:19;;;;;;;2.53;1.85;;;30.00;41.10;;;;;;5004557;28;20037;-66
2022/07/24 11:27:12;;;;;;;2.55;1.77;;;30.10;40.90;;;;;;5001409;28;20030;-64
2022/07/24 11:29:38;;;;;;;2.30;1.83;;;30.30;40.90;;;;;;5004326;28;20030;-65
2022/07/24 11:32:17;;;;;;;2.83;2.20;;;30.40;41.00;;;;;;4991885;28;20033;-65
2022/07/24 11:34:51;;;;;;;3.03;2.22;;;30.30;40.00;;;;;;5008573;28;20026;-65
2022/07/24 11:37:17;;;;;;;2.63;2.30;;;30.40;40.10;;;;;;5000731;28;20366;-65
2022/07/24 11:39:45;;;;;;;1.92;1.70;;;30.30;39.90;;;;;;5008618;28;20029;-65
2022/07/24 11:42:13;;;;;;;2.50;1.77;;;30.30;40.20;;;;;;5010026;28;20400;-65
2022/07/24 11:44:44;;;;;;;2.08;1.88;;;30.30;40.10;;;;;;5009972;28;20021;-65
2022/07/24 11:47:13;;;;;;;3.35;1.58;;;30.50;40.30;;;;;;5000153;28;20045;-65
2022/07/24 11:49:55;;;;;;;2.67;1.95;;;30.60;40.10;;;;;;5001787;28;20148;-65
2022/07/24 11:52:27;;;;;;;2.00;1.80;;;30.70;40.10;;;;;;5008895;28;20033;-65
2022/07/24 11:54:54;;;;;;;2.00;1.80;;;30.90;40.10;;;;;;5003715;28;20092;-65
2022/07/24 11:57:26;;;;;;;3.20;1.80;;;31.00;40.10;;;;;;5011762;28;20165;-66
2022/07/24 11:59:54;;;;;;;2.38;1.95;;;31.20;40.00;;;;;;5007714;28;20107;-65
2022/07/24 12:02:21;;;;;;;2.15;1.95;;;31.30;39.90;;;;;;4998258;28;20034;-65
2022/07/24 12:04:48;;;;;;;1.75;1.63;;;31.20;39.40;;;;;;5001643;28;20070;-65
2022/07/24 12:07:16;;;;;;;1.63;1.52;;;31.30;39.70;;;;;;5005464;28;20101;-65
2022/07/24 12:09:49;;;;;;;2.42;2.00;;;31.40;39.60;;;;;;4993504;28;20022;-65
2022/07/24 12:12:22;;;;;;;2.17;1.80;;;31.30;39.20;;;;;;4997565;28;20033;-65
2022/07/24 12:14:53;;;;;;;1.73;1.50;;;31.40;39.40;;;;;;4999085;28;20069;-65
2022/07/24 12:17:18;;;;;;;2.45;1.90;;;31.60;39.60;;;;;;5009685;28;20113;-65
2022/07/24 12:19:55;;;;;;;4.15;1.92;;;31.70;39.10;;;;;;4994956;28;20177;-66
2022/07/24 12:22:22;;;;;;;2.05;1.80;;;31.80;38.90;;;;;;4990512;28;20030;-65
2022/07/24 12:24:48;;;;;;;2.65;2.00;;;31.80;39.10;;;;;;4991572;28;20022;-65
2022/07/24 12:27:42;;;;;;;2.17;1.73;;;31.70;38.80;;;;;;5003819;28;20393;-65
2022/07/24 12:30:32;;;;;;;1.80;1.70;;;31.80;38.70;;;;;;5013538;28;20022;-65
2022/07/24 12:32:59;;;;;;;1.60;1.50;;;31.70;38.70;;;;;;4992182;28;20121;-65
2022/07/24 12:35:26;;;;;;;1.60;1.50;;;31.80;38.90;;;;;;5002595;28;20432;-65
2022/07/24 12:37:52;;;;;;;1.67;1.50;;;32.10;39.00;;;;;;5008765;28;20176;-65
2022/07/24 12:40:27;;;;;;;2.53;1.80;;;32.30;38.80;;;;;;5011653;28;20172;-65
2022/07/24 12:43:06;;;;;;;2.00;1.80;;;32.50;38.20;;;;;;5013249;28;20030;-65
2022/07/24 12:45:31;;;;;;;1.75;1.40;;;32.30;38.10;;;;;;4998594;28;20084;-65
2022/07/24 12:48:20;;;;;;;2.00;1.48;;;32.50;38.40;;;;;;5008859;28;20025;-65
2022/07/24 12:51:06;;;;;;;1.83;1.73;;;32.40;38.40;;;;;;5010096;28;20050;-65
2022/07/24 12:53:34;;;;;;;2.85;1.70;;;32.50;38.60;;;;;;5011901;28;20022;-65
2022/07/24 12:56:04;;;;;;;2.25;1.60;;;32.70;38.40;;;;;;5011215;28;20037;-65
2022/07/24 12:58:47;;;;;;;1.85;1.75;;;32.90;38.30;;;;;;5004613;28;20395;-65
2022/07/24 13:01:12;;;;;;;1.67;1.58;;;33.00;38.00;;;;;;5008382;28;20352;-65
2022/07/24 13:03:38;;;;;;;2.22;1.55;;;33.10;38.10;;;;;;5009798;28;20030;-65